Time;durP1;ratioP1;P1;durP2;ratioP2;P2;SDS_P1;SDS_P2;PMS_P1;PMS_P2;Temp;Humidity;BMP_temperature;BMP_pressure;BME280_temperature;BME280_humidity;BME280_pressure;Samples;Min_cycle;Max_cycle;Signal;HPM_P1;HPM_P2
2022/02/27 00:02:13;;;;;;;2.75;1.25;;;;;;;3.55;54.95;100755.69;5063981;28;20241;-58
2022/02/27 00:04:39;;;;;;;2.25;1.42;;;;;;;3.56;55.86;100756.53;5063841;28;20049;-58
2022/02/27 00:07:05;;;;;;;3.22;1.30;;;;;;;3.28;55.85;100758.41;5064052;28;20135;-58
2022/02/27 00:09:30;;;;;;;1.73;1.27;;;;;;;3.33;55.91;100763.66;5055700;28;20025;-58
2022/02/27 00:11:57;;;;;;;2.55;1.20;;;;;;;3.32;55.87;100770.47;5063796;28;20044;-58
2022/02/27 00:14:23;;;;;;;2.75;1.42;;;;;;;3.37;56.82;100770.59;5063210;28;20048;-58
2022/02/27 00:16:48;;;;;;;3.05;1.58;;;;;;;3.25;57.13;100750.63;5063575;28;20031;-60
2022/02/27 00:19:14;;;;;;;2.10;1.30;;;;;;;3.19;57.50;100764.19;5063745;28;20044;-60
2022/02/27 00:21:41;;;;;;;3.85;1.23;;;;;;;3.28;56.27;100771.22;5062508;28;20040;-60
2022/02/27 00:24:08;;;;;;;2.50;1.27;;;;;;;3.27;56.93;100775.44;5063956;28;20334;-59
2022/02/27 00:26:34;;;;;;;2.92;1.30;;;;;;;3.33;56.60;100766.22;5063642;28;20234;-61
2022/02/27 00:29:00;;;;;;;2.58;1.17;;;;;;;3.35;57.70;100774.78;5062376;28;20033;-61
2022/02/27 00:31:25;;;;;;;5.72;1.40;;;;;;;3.32;57.43;100773.03;5063651;28;20301;-60
2022/02/27 00:33:51;;;;;;;4.78;1.83;;;;;;;3.26;58.50;100772.84;5063411;28;20025;-59
2022/02/27 00:36:17;;;;;;;1.90;1.33;;;;;;;3.36;58.15;100789.31;5063452;28;20025;-61
2022/02/27 00:38:42;;;;;;;6.68;1.70;;;;;;;3.27;57.94;100785.69;5063341;28;20520;-60
2022/02/27 00:41:08;;;;;;;4.78;1.80;;;;;;;3.19;58.46;100788.88;5063233;28;20203;-60
2022/02/27 00:43:34;;;;;;;3.33;1.38;;;;;;;3.06;57.35;100791.09;5063345;28;20084;-60
2022/02/27 00:46:01;;;;;;;3.55;1.63;;;;;;;3.18;58.50;100785.47;5063527;28;20044;-61
2022/02/27 00:48:27;;;;;;;3.67;1.50;;;;;;;3.13;57.74;100797.25;5063327;28;20032;-60
2022/02/27 00:50:52;;;;;;;2.85;1.80;;;;;;;3.10;58.36;100789.50;5063308;28;20033;-59
2022/02/27 00:53:18;;;;;;;4.22;1.40;;;;;;;3.01;58.13;100789.28;5074996;28;20066;-60
2022/02/27 00:55:43;;;;;;;2.45;1.40;;;;;;;2.97;58.46;100811.34;5064367;28;20066;-58
2022/02/27 00:58:09;;;;;;;2.80;1.45;;;;;;;2.82;58.53;100809.22;5062989;28;20025;-59
2022/02/27 01:00:35;;;;;;;3.25;1.55;;;;;;;2.75;58.76;100794.50;5063049;28;20035;-59
2022/02/27 01:03:00;;;;;;;1.85;1.48;;;;;;;2.83;58.75;100812.63;5062961;28;20070;-59
2022/02/27 01:05:26;;;;;;;1.65;1.42;;;;;;;2.91;59.52;100813.72;5062805;28;20041;-59
2022/02/27 01:07:51;;;;;;;2.88;1.40;;;;;;;2.90;58.25;100812.84;5062597;28;20245;-59
2022/02/27 01:10:17;;;;;;;1.92;1.25;;;;;;;2.78;58.92;100811.63;5063053;28;20236;-59
2022/02/27 01:12:42;;;;;;;5.13;1.55;;;;;;;2.86;59.26;100821.25;5063049;28;20032;-59
2022/02/27 01:15:09;;;;;;;3.03;1.65;;;;;;;2.79;59.62;100827.03;5062867;28;20021;-59
2022/02/27 01:17:35;;;;;;;3.35;1.40;;;;;;;2.81;59.76;100825.41;5062520;28;20055;-59
2022/02/27 01:20:00;;;;;;;4.00;1.48;;;;;;;2.70;58.95;100824.22;5062721;28;20063;-59
2022/02/27 01:22:26;;;;;;;1.95;1.30;;;;;;;2.77;59.71;100833.78;5062615;28;20025;-60
2022/02/27 01:24:52;;;;;;;1.92;1.42;;;;;;;2.78;59.84;100830.44;5062629;28;20032;-58
2022/02/27 01:27:18;;;;;;;3.78;1.35;;;;;;;2.74;59.43;100828.59;5062390;28;20233;-59
2022/02/27 01:29:43;;;;;;;3.10;1.30;;;;;;;2.73;60.09;100832.81;5062718;28;20047;-59
2022/02/27 01:32:09;;;;;;;3.65;1.75;;;;;;;2.62;60.31;100823.97;5062879;28;20210;-59
2022/02/27 01:34:34;;;;;;;3.50;1.58;;;;;;;2.74;60.23;100836.28;5062652;28;20036;-58
2022/02/27 01:37:00;;;;;;;2.22;1.10;;;;;;;2.70;60.56;100837.84;5062728;28;20031;-59
2022/02/27 01:39:25;;;;;;;2.67;1.30;;;;;;;2.67;60.14;100836.91;5062757;28;20217;-59
2022/02/27 01:41:51;;;;;;;3.17;1.60;;;;;;;2.68;59.78;100831.84;5062740;28;20017;-58
2022/02/27 01:44:16;;;;;;;4.18;1.20;;;;;;;2.61;60.85;100832.50;5062678;28;20037;-59
2022/02/27 01:46:56;;;;;;;2.25;1.48;;;;;;;2.51;61.17;100833.91;5061192;28;20312;-59
2022/02/27 01:49:22;;;;;;;2.90;1.25;;;;;;;2.68;61.57;100848.84;5062363;28;20044;-59
2022/02/27 01:51:47;;;;;;;3.67;1.25;;;;;;;2.70;60.21;100848.09;5062198;28;20226;-59
2022/02/27 01:54:13;;;;;;;3.03;1.20;;;;;;;2.64;60.38;100839.38;5062647;28;20032;-59
2022/02/27 01:56:40;;;;;;;2.45;1.50;;;;;;;2.73;60.55;100857.53;5062268;28;20028;-59
2022/02/27 01:59:07;;;;;;;3.25;1.70;;;;;;;2.67;60.60;100857.38;5062611;28;20025;-59
2022/02/27 02:01:32;;;;;;;2.00;1.13;;;;;;;2.68;61.36;100864.19;5062623;28;20029;-59
2022/02/27 02:03:59;;;;;;;1.73;1.20;;;;;;;2.65;61.44;100877.78;5062077;28;20036;-59
2022/02/27 02:06:25;;;;;;;3.15;1.20;;;;;;;2.58;61.37;100853.72;5064926;28;20035;-58
2022/02/27 02:08:50;;;;;;;5.60;1.42;;;;;;;2.63;61.62;100876.00;5052380;28;20049;-59
2022/02/27 02:11:16;;;;;;;2.90;1.27;;;;;;;2.63;61.64;100870.88;5063634;28;20352;-60
2022/02/27 02:13:42;;;;;;;2.20;1.48;;;;;;;2.64;62.19;100883.72;5064556;28;20025;-59
2022/02/27 02:16:08;;;;;;;2.10;1.10;;;;;;;2.58;61.45;100886.97;5065979;28;20028;-59
2022/02/27 02:18:33;;;;;;;5.35;1.48;;;;;;;2.36;62.04;100879.44;5066154;28;20039;-59
2022/02/27 02:20:59;;;;;;;4.25;1.30;;;;;;;2.30;62.74;100890.34;5065948;28;20017;-59
2022/02/27 02:23:25;;;;;;;4.47;1.40;;;;;;;2.37;62.76;100894.81;5065987;28;20206;-59
2022/02/27 02:25:50;;;;;;;2.00;1.30;;;;;;;2.27;62.76;100897.91;5066070;28;20027;-59
2022/02/27 02:28:16;;;;;;;1.50;1.30;;;;;;;1.96;63.63;100866.25;5065785;28;20017;-60
2022/02/27 02:30:41;;;;;;;3.58;1.13;;;;;;;2.04;63.80;100852.03;5066082;28;20195;-60
2022/02/27 02:33:07;;;;;;;2.55;1.40;;;;;;;2.35;63.51;100896.47;5065868;28;20310;-59
2022/02/27 02:35:32;;;;;;;2.35;1.38;;;;;;;2.27;63.83;100891.91;5044606;28;20218;-59
2022/02/27 02:37:58;;;;;;;4.65;1.50;;;;;;;2.19;64.55;100900.19;5060596;28;20048;-60
2022/02/27 02:40:25;;;;;;;3.42;1.17;;;;;;;2.12;64.42;100900.81;5065580;28;20096;-60
2022/02/27 02:42:51;;;;;;;2.42;1.48;;;;;;;2.12;64.72;100913.59;5065690;28;20258;-60
2022/02/27 02:45:17;;;;;;;3.33;1.70;;;;;;;1.97;65.10;100908.88;5065562;28;20028;-60
2022/02/27 02:47:48;;;;;;;4.35;1.90;;;;;;;1.91;65.00;100939.31;5065519;28;20025;-60
2022/02/27 02:50:15;;;;;;;1.83;1.23;;;;;;;1.61;65.65;100872.72;5065619;28;20217;-60
2022/02/27 02:52:41;;;;;;;3.17;1.55;;;;;;;1.97;65.98;100924.19;5053500;28;20041;-59
2022/02/27 02:55:13;;;;;;;1.65;1.35;;;;;;;1.92;66.26;100912.09;5065326;28;20058;-59
2022/02/27 02:57:39;;;;;;;1.67;1.30;;;;;;;2.05;65.78;100927.00;5065151;28;20029;-59
2022/02/27 03:00:10;;;;;;;4.35;1.67;;;;;;;1.64;65.59;100877.94;5063828;28;20213;-60
2022/02/27 03:02:37;;;;;;;2.08;1.50;;;;;;;2.14;65.71;100942.66;5065177;28;20040;-59
2022/02/27 03:05:05;;;;;;;2.03;1.40;;;;;;;2.10;65.53;100940.81;5063827;28;20047;-59
2022/02/27 03:07:35;;;;;;;2.38;1.40;;;;;;;1.72;65.77;100886.72;5062241;28;20048;-60
2022/02/27 03:10:04;;;;;;;2.20;1.30;;;;;;;2.13;65.69;100943.44;5057226;28;20033;-60
2022/02/27 03:12:29;;;;;;;2.28;1.42;;;;;;;2.18;66.16;100954.72;5064983;28;20028;-60
2022/02/27 03:14:55;;;;;;;2.05;1.48;;;;;;;1.98;65.97;100950.59;5064708;28;20348;-59
2022/02/27 03:17:21;;;;;;;2.90;1.65;;;;;;;2.16;65.16;100961.44;5063441;28;20029;-59
2022/02/27 03:19:46;;;;;;;3.03;1.42;;;;;;;2.24;65.41;100970.22;5063598;28;20062;-59
2022/02/27 03:22:12;;;;;;;5.15;1.70;;;;;;;2.18;65.35;100984.47;5064857;28;20032;-59
2022/02/27 03:24:37;;;;;;;2.72;1.30;;;;;;;2.02;64.23;100983.09;5064781;28;20045;-59
2022/02/27 03:27:03;;;;;;;4.13;1.23;;;;;;;2.05;64.32;100989.19;5064335;28;20032;-60
2022/02/27 03:29:28;;;;;;;2.50;1.20;;;;;;;1.82;64.02;100996.03;5063572;28;20083;-59
2022/02/27 03:31:54;;;;;;;2.83;1.15;;;;;;;1.65;63.93;100997.97;5064822;28;20035;-59
2022/02/27 03:34:21;;;;;;;2.75;1.20;;;;;;;1.34;63.76;100939.84;5064626;28;20051;-58
2022/02/27 03:36:47;;;;;;;2.17;1.23;;;;;;;1.84;63.84;101019.97;5064497;28;20037;-60
2022/02/27 03:39:12;;;;;;;2.40;1.38;;;;;;;1.67;63.29;101010.84;5068055;28;20364;-58
2022/02/27 03:41:38;;;;;;;3.60;1.10;;;;;;;1.70;63.38;101022.00;5063135;28;20066;-59
2022/02/27 03:44:04;;;;;;;2.95;1.13;;;;;;;1.66;63.07;101026.97;5064421;28;20023;-59
2022/02/27 03:46:34;;;;;;;2.05;1.00;;;;;;;1.74;63.75;101033.22;5064529;28;20090;-59
2022/02/27 03:49:04;;;;;;;2.15;0.90;;;;;;;1.80;63.15;101040.25;5063713;28;20100;-58
2022/02/27 03:51:32;;;;;;;2.40;1.40;;;;;;;1.20;63.67;100973.38;5062838;28;20029;-58
2022/02/27 03:53:58;;;;;;;1.30;1.20;;;;;;;1.65;63.37;101048.19;5064263;28;20028;-59
2022/02/27 03:56:23;;;;;;;2.35;1.40;;;;;;;1.45;63.09;101034.69;5063115;28;20070;-60
2022/02/27 03:58:49;;;;;;;1.80;1.00;;;;;;;1.59;62.94;101058.19;5062793;28;20028;-59
2022/02/27 04:01:14;;;;;;;2.13;1.15;;;;;;;1.65;62.96;101058.41;5063875;28;20028;-59
2022/02/27 04:03:40;;;;;;;3.30;1.20;;;;;;;1.70;63.33;101067.97;5042870;28;20025;-61
2022/02/27 04:06:05;;;;;;;1.95;0.98;;;;;;;1.47;62.73;101073.88;5050974;28;20037;-59
2022/02/27 04:08:31;;;;;;;1.10;0.90;;;;;;;1.50;62.49;101074.88;5057391;28;20094;-61
2022/02/27 04:10:57;;;;;;;2.92;1.20;;;;;;;1.51;63.04;101080.84;5064126;28;20059;-60
2022/02/27 04:13:22;;;;;;;1.52;1.15;;;;;;;1.44;63.56;101084.00;5062748;28;20062;-60
2022/02/27 04:15:48;;;;;;;1.75;1.10;;;;;;;1.16;62.16;101095.69;5062496;28;20067;-62
2022/02/27 04:18:14;;;;;;;1.52;0.90;;;;;;;1.07;63.18;101096.19;5063763;28;20037;-61
2022/02/27 04:20:39;;;;;;;3.47;1.15;;;;;;;1.01;63.63;101101.91;5061807;28;20254;-61
2022/02/27 04:23:05;;;;;;;1.20;0.98;;;;;;;1.15;63.64;101097.34;5053439;28;20021;-60
2022/02/27 04:25:30;;;;;;;1.40;1.30;;;;;;;1.00;63.00;101097.63;5062051;28;20048;-59
2022/02/27 04:27:56;;;;;;;2.13;1.30;;;;;;;1.02;63.52;101100.22;5063286;28;20021;-59
2022/02/27 04:30:22;;;;;;;2.92;1.27;;;;;;;0.76;63.00;101107.69;5062371;28;20131;-60
2022/02/27 04:32:48;;;;;;;1.80;1.10;;;;;;;0.66;63.47;101115.75;5054404;28;20028;-62
2022/02/27 04:35:14;;;;;;;4.35;1.17;;;;;;;0.78;63.76;101125.59;5060803;28;20029;-61
2022/02/27 04:37:40;;;;;;;1.20;0.93;;;;;;;0.59;63.09;101123.97;5062493;28;20021;-61
2022/02/27 04:40:06;;;;;;;1.60;1.00;;;;;;;0.27;63.01;101125.97;5061001;28;20206;-60
2022/02/27 04:42:32;;;;;;;4.57;1.20;;;;;;;0.30;62.46;101136.28;5062731;28;20040;-62
2022/02/27 04:44:58;;;;;;;2.15;1.05;;;;;;;0.34;62.06;101120.34;5063234;28;20021;-62
2022/02/27 04:47:23;;;;;;;1.52;1.00;;;;;;;0.19;61.90;101143.47;5063031;28;20044;-61
2022/02/27 04:49:50;;;;;;;1.60;0.80;;;;;;;0.23;62.46;101149.56;5063072;28;20028;-61
2022/02/27 04:52:16;;;;;;;1.52;0.90;;;;;;;0.39;62.24;101153.69;5062859;28;20310;-61
2022/02/27 04:54:43;;;;;;;2.35;0.80;;;;;;;0.22;62.31;101094.34;5063215;28;20070;-60
2022/02/27 04:57:09;;;;;;;1.92;0.98;;;;;;;0.58;61.21;101143.47;5059871;28;20068;-61
2022/02/27 04:59:34;;;;;;;0.90;0.80;;;;;;;0.56;61.88;101139.13;5059117;28;20023;-62
2022/02/27 05:02:00;;;;;;;3.03;1.25;;;;;;;0.52;60.89;101154.25;5061685;28;20075;-62
2022/02/27 05:04:25;;;;;;;1.33;1.13;;;;;;;0.34;60.71;101156.91;5060589;28;20048;-63
2022/02/27 05:06:51;;;;;;;5.35;1.10;;;;;;;0.45;61.98;101151.41;5060288;28;20048;-61
2022/02/27 05:09:19;;;;;;;1.38;1.10;;;;;;;0.64;61.96;101160.69;5060008;28;20033;-63
2022/02/27 05:11:46;;;;;;;3.22;0.90;;;;;;;0.62;60.54;101168.28;5061971;28;20029;-62
2022/02/27 05:14:12;;;;;;;4.25;1.30;;;;;;;0.33;60.39;101164.47;5061577;28;20070;-62
2022/02/27 05:16:40;;;;;;;3.55;1.25;;;;;;;0.48;61.05;101162.56;5060832;28;20048;-61
2022/02/27 05:19:06;;;;;;;1.85;1.10;;;;;;;0.33;59.58;101169.56;5061557;28;20033;-61
2022/02/27 05:21:32;;;;;;;1.00;0.90;;;;;;;0.30;60.60;101177.06;5043989;28;20017;-62
2022/02/27 05:23:58;;;;;;;1.90;1.10;;;;;;;0.39;60.16;101181.72;5062820;28;20024;-62
2022/02/27 05:26:23;;;;;;;1.90;0.98;;;;;;;0.49;60.39;101179.63;5061678;28;20313;-63
2022/02/27 05:28:49;;;;;;;2.30;1.00;;;;;;;0.44;60.08;101181.13;5061418;28;20059;-63
2022/02/27 05:31:14;;;;;;;2.35;0.90;;;;;;;0.66;60.54;101182.91;5062615;28;20025;-64
2022/02/27 05:33:40;;;;;;;2.38;1.00;;;;;;;0.69;59.53;101188.13;5062688;28;20056;-62
2022/02/27 05:36:06;;;;;;;1.75;1.00;;;;;;;0.46;59.02;101187.13;5062479;28;20029;-61
2022/02/27 05:38:32;;;;;;;2.63;1.10;;;;;;;0.46;58.98;101193.91;5062589;28;20352;-60
2022/02/27 05:40:58;;;;;;;2.80;0.98;;;;;;;0.30;58.83;101199.97;5064219;28;20025;-62
2022/02/27 05:43:23;;;;;;;3.10;1.17;;;;;;;0.45;58.36;101210.00;5066748;28;20029;-62
2022/02/27 05:45:49;;;;;;;2.42;0.90;;;;;;;0.36;58.13;101200.28;5066473;28;20108;-61
2022/02/27 05:48:15;;;;;;;4.13;1.00;;;;;;;0.04;57.70;101206.47;5066119;28;20048;-61
2022/02/27 05:50:40;;;;;;;1.35;1.02;;;;;;;0.22;57.72;101219.16;5066268;28;20025;-61
2022/02/27 05:53:06;;;;;;;1.90;0.98;;;;;;;0.40;58.15;101209.81;5066259;28;20325;-65
2022/02/27 05:55:31;;;;;;;2.08;0.90;;;;;;;0.50;57.68;101213.66;5066426;28;20036;-61
2022/02/27 05:57:57;;;;;;;4.18;1.00;;;;;;;0.57;57.49;101218.19;5066441;28;20095;-61
2022/02/27 06:00:23;;;;;;;2.60;0.88;;;;;;;0.41;57.33;101206.44;5066145;28;20036;-61
2022/02/27 06:02:48;;;;;;;1.60;0.98;;;;;;;0.48;57.97;101217.78;5066251;28;20195;-62
2022/02/27 06:05:14;;;;;;;2.88;0.98;;;;;;;0.65;57.26;101228.72;5065714;28;20049;-61
2022/02/27 06:07:39;;;;;;;2.85;1.20;;;;;;;0.73;57.44;101222.28;5065835;28;20040;-62
2022/02/27 06:10:05;;;;;;;1.45;0.90;;;;;;;1.04;58.33;101223.59;5065093;28;20013;-63
2022/02/27 06:12:31;;;;;;;3.65;1.15;;;;;;;1.08;56.37;101235.66;5066292;28;20230;-63
2022/02/27 06:14:57;;;;;;;2.70;1.92;;;;;;;0.99;56.38;101233.59;5065785;28;20088;-62
2022/02/27 06:17:22;;;;;;;4.10;1.20;;;;;;;0.89;56.50;101239.13;5065837;28;20061;-63
2022/02/27 06:19:48;;;;;;;4.32;1.02;;;;;;;0.72;55.14;101242.63;5065683;28;20032;-62
2022/02/27 06:22:14;;;;;;;2.53;1.23;;;;;;;0.50;55.29;101244.22;5064801;28;20040;-63
2022/02/27 06:24:40;;;;;;;1.80;1.17;;;;;;;0.20;57.43;101251.31;5065618;28;20025;-63
2022/02/27 06:27:05;;;;;;;2.22;1.35;;;;;;;0.37;56.82;101247.00;5068900;28;20364;-62
2022/02/27 06:29:31;;;;;;;3.75;1.55;;;;;;;0.61;56.81;101242.13;5076334;28;20025;-62
2022/02/27 06:31:56;;;;;;;1.98;1.50;;;;;;;0.78;56.49;101243.75;5065771;28;20074;-62
2022/02/27 06:34:22;;;;;;;3.97;1.67;;;;;;;0.73;56.30;101254.53;5065544;28;20040;-63
2022/02/27 06:36:47;;;;;;;2.97;1.17;;;;;;;0.66;55.04;101250.88;5065575;28;20028;-63
2022/02/27 06:39:13;;;;;;;7.35;1.88;;;;;;;0.84;55.42;101258.44;5065151;28;20037;-63
2022/02/27 06:41:39;;;;;;;4.57;1.50;;;;;;;0.95;57.24;101269.13;5065233;28;20041;-63
2022/02/27 06:44:04;;;;;;;3.80;1.50;;;;;;;0.51;56.03;101277.44;5050941;28;20030;-63
2022/02/27 06:46:30;;;;;;;2.42;1.70;;;;;;;0.61;56.16;101270.19;5060287;28;20028;-62
2022/02/27 06:48:56;;;;;;;3.92;2.10;;;;;;;0.57;56.01;101283.59;5065362;28;20056;-62
2022/02/27 06:51:22;;;;;;;2.10;1.73;;;;;;;0.82;56.15;101291.53;5064714;28;20110;-62
2022/02/27 06:53:47;;;;;;;2.33;1.50;;;;;;;0.65;56.23;101293.31;5064577;28;20021;-61
2022/02/27 06:56:13;;;;;;;2.08;1.70;;;;;;;0.72;55.79;101289.38;5065306;28;20036;-61
2022/02/27 06:58:39;;;;;;;1.80;1.40;;;;;;;0.61;55.57;101301.63;5064266;28;20191;-63
2022/02/27 07:01:05;;;;;;;1.70;1.45;;;;;;;0.66;56.83;101294.22;5065133;28;20029;-61
2022/02/27 07:03:30;;;;;;;4.75;1.83;;;;;;;0.62;56.58;101264.28;5065220;28;20094;-63
2022/02/27 07:05:57;;;;;;;3.50;1.80;;;;;;;0.73;56.45;101296.22;5064859;28;20056;-64
2022/02/27 07:08:22;;;;;;;4.15;1.80;;;;;;;0.54;56.13;101306.38;5055080;28;20056;-64
2022/02/27 07:10:48;;;;;;;8.82;2.15;;;;;;;0.74;57.43;101281.78;5063254;28;20033;-61
2022/02/27 07:13:14;;;;;;;8.95;2.53;;;;;;;0.63;55.67;101310.22;5065211;28;20028;-62
2022/02/27 07:15:40;;;;;;;2.72;1.75;;;;;;;0.50;56.90;101282.47;5064829;28;20075;-62
2022/02/27 07:18:05;;;;;;;2.85;2.05;;;;;;;0.84;56.38;101307.78;5065174;28;20060;-61
2022/02/27 07:20:31;;;;;;;4.75;2.45;;;;;;;1.03;55.68;101308.59;5063552;28;20024;-62
2022/02/27 07:22:57;;;;;;;9.18;2.63;;;;;;;1.19;55.85;101318.63;5064755;28;20017;-62
2022/02/27 07:25:23;;;;;;;6.97;2.35;;;;;;;1.15;55.92;101306.56;5064728;28;20037;-61
2022/02/27 07:27:48;;;;;;;3.17;2.28;;;;;;;1.33;54.41;101313.28;5063761;28;20028;-62
2022/02/27 07:30:14;;;;;;;4.47;2.55;;;;;;;1.49;55.99;101309.69;5064901;28;20033;-61
2022/02/27 07:32:40;;;;;;;4.97;2.28;;;;;;;1.57;54.30;101310.00;5064894;28;20321;-63
2022/02/27 07:35:06;;;;;;;4.72;2.40;;;;;;;1.33;54.65;101326.03;5064731;28;20221;-60
2022/02/27 07:37:32;;;;;;;3.97;2.80;;;;;;;1.43;53.77;101317.97;5063296;28;20037;-62
2022/02/27 07:39:57;;;;;;;10.38;2.83;;;;;;;1.40;53.62;101320.38;5064248;28;20029;-62
2022/02/27 07:42:23;;;;;;;4.18;2.22;;;;;;;1.43;52.83;101328.16;5064527;28;20031;-62
2022/02/27 07:44:48;;;;;;;1.60;1.50;;;;;;;1.21;53.47;101331.47;5064352;28;20305;-64
2022/02/27 07:47:14;;;;;;;3.92;2.00;;;;;;;1.18;53.75;101324.56;5063121;28;20233;-62
2022/02/27 07:49:39;;;;;;;5.32;1.80;;;;;;;1.27;53.89;101326.66;5064300;28;20016;-63
2022/02/27 07:52:05;;;;;;;4.78;2.15;;;;;;;1.45;54.48;101321.44;5063835;28;20067;-61
2022/02/27 07:54:31;;;;;;;6.43;1.83;;;;;;;1.41;52.93;101331.47;5063376;28;20330;-61
2022/02/27 07:56:57;;;;;;;2.67;1.70;;;;;;;1.57;53.08;101328.75;5064111;28;20017;-62
2022/02/27 07:59:22;;;;;;;1.98;1.30;;;;;;;1.67;53.03;101327.47;5064163;28;20105;-62
2022/02/27 08:01:48;;;;;;;3.88;1.50;;;;;;;1.71;53.39;101335.31;5064015;28;20221;-61
2022/02/27 08:04:14;;;;;;;3.97;1.20;;;;;;;1.48;53.18;101330.91;5063370;28;20028;-62
2022/02/27 08:06:40;;;;;;;4.55;2.00;;;;;;;1.52;53.57;101333.66;5063632;28;20257;-60
2022/02/27 08:09:06;;;;;;;7.50;1.40;;;;;;;1.67;53.87;101335.13;5054722;28;20035;-62
2022/02/27 08:11:33;;;;;;;4.45;1.50;;;;;;;1.45;53.05;101339.31;5062560;28;20240;-62
2022/02/27 08:13:59;;;;;;;5.00;1.48;;;;;;;1.40;52.79;101342.47;5045243;28;20028;-61
2022/02/27 08:16:25;;;;;;;4.13;1.23;;;;;;;1.13;52.20;101332.84;5062419;28;20100;-63
2022/02/27 08:18:51;;;;;;;4.28;1.77;;;;;;;1.12;53.16;101342.16;5063634;28;20025;-62
2022/02/27 08:21:16;;;;;;;1.77;1.15;;;;;;;0.82;53.75;101345.06;5062458;28;20058;-63
2022/02/27 08:23:42;;;;;;;3.65;1.50;;;;;;;1.13;53.58;101328.59;5062408;28;20044;-62
2022/02/27 08:26:08;;;;;;;1.90;1.52;;;;;;;0.95;53.06;101322.69;5063263;28;20021;-63
2022/02/27 08:28:33;;;;;;;4.93;1.27;;;;;;;1.32;52.73;101334.50;5063241;28;20061;-62
2022/02/27 08:31:00;;;;;;;2.20;1.27;;;;;;;0.94;51.60;101347.31;5063549;28;20206;-63
2022/02/27 08:33:26;;;;;;;4.75;1.38;;;;;;;0.89;53.00;101343.69;5063375;28;20093;-61
2022/02/27 08:35:52;;;;;;;2.25;1.60;;;;;;;0.86;52.68;101334.22;5063123;28;20043;-62
2022/02/27 08:38:18;;;;;;;3.13;1.35;;;;;;;1.51;53.25;101342.13;5063476;28;20055;-62
2022/02/27 08:40:44;;;;;;;2.17;1.45;;;;;;;1.36;51.80;101359.34;5063248;28;20028;-62
2022/02/27 08:43:09;;;;;;;5.00;1.95;;;;;;;1.32;51.62;101353.22;5063601;28;20028;-63
2022/02/27 08:45:35;;;;;;;2.65;1.70;;;;;;;1.35;52.03;101345.72;5062990;28;20029;-61
2022/02/27 08:48:01;;;;;;;2.70;1.42;;;;;;;1.58;51.58;101352.59;5063202;28;20060;-61
2022/02/27 08:50:27;;;;;;;2.15;1.58;;;;;;;1.89;51.10;101355.59;5061677;28;20046;-62
2022/02/27 08:52:52;;;;;;;4.22;2.08;;;;;;;1.70;51.12;101346.31;5062758;28;20020;-62
2022/02/27 08:55:18;;;;;;;3.55;2.13;;;;;;;1.87;50.98;101344.47;5062903;28;20021;-62
2022/02/27 08:57:45;;;;;;;3.00;2.10;;;;;;;1.78;50.55;101310.00;5062918;28;20096;-62
2022/02/27 09:00:12;;;;;;;7.13;2.35;;;;;;;2.10;49.94;101352.19;5061771;28;20088;-61
2022/02/27 09:02:38;;;;;;;5.95;1.75;;;;;;;2.51;50.42;101352.94;5063068;28;20232;-62
2022/02/27 09:05:05;;;;;;;6.78;2.67;;;;;;;2.39;49.97;101360.13;5062950;28;20048;-61
2022/02/27 09:07:32;;;;;;;2.00;1.60;;;;;;;1.83;49.31;101355.38;5060283;28;20098;-61
2022/02/27 09:09:57;;;;;;;2.28;1.63;;;;;;;1.66;49.91;101364.00;5058161;28;20029;-62
2022/02/27 09:12:23;;;;;;;3.22;1.95;;;;;;;1.55;49.98;101361.00;5059283;28;20356;-60
2022/02/27 09:14:49;;;;;;;3.28;2.10;;;;;;;1.92;49.66;101361.66;5062365;28;20020;-61
2022/02/27 09:17:16;;;;;;;4.15;1.73;;;;;;;1.95;50.14;101334.53;5062405;28;20221;-62
2022/02/27 09:19:41;;;;;;;5.00;2.08;;;;;;;2.75;48.34;101352.13;5062596;28;20033;-61
2022/02/27 09:22:07;;;;;;;3.53;2.08;;;;;;;2.83;48.44;101360.09;5062688;28;20217;-62
2022/02/27 09:24:33;;;;;;;2.25;1.67;;;;;;;3.87;47.31;101357.78;5059605;28;20331;-62
2022/02/27 09:26:58;;;;;;;4.70;2.47;;;;;;;3.89;45.48;101357.81;5048726;28;20072;-61
2022/02/27 09:29:24;;;;;;;2.60;2.05;;;;;;;4.12;46.38;101363.72;5054580;28;20027;-62
2022/02/27 09:31:50;;;;;;;4.00;2.10;;;;;;;3.66;45.55;101372.44;5062540;28;20025;-64
2022/02/27 09:34:16;;;;;;;3.65;2.10;;;;;;;3.03;45.35;101371.06;5062700;28;20066;-62
2022/02/27 09:36:42;;;;;;;4.03;1.77;;;;;;;3.07;45.41;101370.38;5062353;28;20032;-62
2022/02/27 09:39:07;;;;;;;3.33;1.80;;;;;;;3.04;45.75;101373.69;5061932;28;20031;-66
2022/02/27 09:41:33;;;;;;;3.67;1.90;;;;;;;3.22;45.85;101354.69;5061280;28;20269;-65
2022/02/27 09:44:00;;;;;;;2.92;2.00;;;;;;;3.05;46.55;101374.53;5062133;28;20039;-64
2022/02/27 09:46:28;;;;;;;2.08;1.88;;;;;;;3.34;46.16;101369.63;5062052;28;20405;-65
2022/02/27 09:48:54;;;;;;;2.40;2.00;;;;;;;3.38;47.02;101368.94;5062103;28;20100;-63
2022/02/27 09:51:20;;;;;;;2.42;1.70;;;;;;;3.07;46.05;101375.50;5061865;28;20092;-64
2022/02/27 09:53:46;;;;;;;6.93;2.17;;;;;;;3.23;46.79;101382.03;5061182;28;20047;-63
2022/02/27 09:56:12;;;;;;;5.32;1.80;;;;;;;2.89;47.11;101376.56;5061381;28;20305;-62
2022/02/27 09:58:38;;;;;;;2.90;1.83;;;;;;;2.91;47.76;101384.28;5059951;28;20029;-62
2022/02/27 10:01:05;;;;;;;4.78;1.77;;;;;;;2.79;47.62;101382.13;5055527;28;20096;-62
2022/02/27 10:03:32;;;;;;;2.75;1.70;;;;;;;2.44;46.98;101311.72;5059610;28;20033;-62
2022/02/27 10:06:02;;;;;;;4.45;1.75;;;;;;;2.18;47.32;101376.38;5060620;28;20049;-63
2022/02/27 10:08:41;;;;;;;2.88;1.90;;;;;;;2.00;48.20;101383.31;5053945;28;20045;-63
2022/02/27 10:11:09;;;;;;;5.22;2.00;;;;;;;2.10;47.75;101375.19;5057456;28;20033;-61
2022/02/27 10:13:42;;;;;;;5.13;2.17;;;;;;;2.00;47.49;101348.41;5059566;28;20032;-61
2022/02/27 10:16:15;;;;;;;3.35;1.52;;;;;;;1.62;47.80;101314.47;5060190;28;20033;-61
2022/02/27 10:18:50;;;;;;;7.40;2.38;;;;;;;1.79;48.27;101373.91;5060334;28;20041;-61
2022/02/27 10:21:21;;;;;;;2.45;1.90;;;;;;;2.23;48.35;101374.00;5059034;28;20082;-62
2022/02/27 10:24:04;;;;;;;5.25;1.77;;;;;;;2.04;47.56;101374.97;5060578;28;20025;-62
2022/02/27 10:26:32;;;;;;;7.20;1.98;;;;;;;2.31;48.20;101371.75;5061707;28;20032;-63
2022/02/27 10:29:13;;;;;;;3.92;1.73;;;;;;;1.97;47.43;101370.41;5065508;28;20032;-61
2022/02/27 10:31:58;;;;;;;3.13;2.00;;;;;;;2.12;47.88;101365.03;5059535;28;20049;-62
2022/02/27 10:34:28;;;;;;;2.55;2.00;;;;;;;2.17;47.77;101379.75;5065612;28;20051;-60
2022/02/27 10:37:05;;;;;;;1.80;1.60;;;;;;;2.08;47.60;101330.81;5065503;28;20094;-61
2022/02/27 10:39:35;;;;;;;3.33;1.80;;;;;;;2.00;47.63;101360.31;5065493;28;20106;-61
2022/02/27 10:42:11;;;;;;;3.88;1.55;;;;;;;1.68;48.51;101296.88;5064332;28;20342;-61
2022/02/27 10:44:38;;;;;;;2.13;1.80;;;;;;;2.19;47.61;101360.22;5065555;28;20025;-61
2022/02/27 10:47:29;;;;;;;2.20;1.45;;;;;;;1.89;48.84;101337.72;5061016;28;20233;-61
2022/02/27 10:49:57;;;;;;;5.40;1.45;;;;;;;1.39;48.56;101308.41;5065467;28;20104;-63
2022/02/27 10:52:25;;;;;;;8.50;2.15;;;;;;;1.58;48.73;101304.09;5065305;28;20036;-61
2022/02/27 10:54:58;;;;;;;2.40;1.80;;;;;;;1.79;48.22;101322.84;5065578;28;20035;-62
2022/02/27 10:57:27;;;;;;;1.92;1.55;;;;;;;1.68;48.06;101367.50;5065343;28;20041;-62
2022/02/27 10:59:55;;;;;;;2.03;1.73;;;;;;;1.79;49.90;101362.84;5065388;28;20033;-61
2022/02/27 11:02:24;;;;;;;5.93;1.70;;;;;;;1.86;48.76;101360.59;5062404;28;20216;-60
2022/02/27 11:04:51;;;;;;;2.80;1.77;;;;;;;2.13;49.53;101374.44;5065016;28;20071;-60
2022/02/27 11:07:17;;;;;;;3.63;1.85;;;;;;;2.00;48.53;101363.72;5065993;28;20233;-60
2022/02/27 11:09:44;;;;;;;2.22;1.90;;;;;;;2.19;47.60;101367.88;5068612;28;20021;-60
2022/02/27 11:12:11;;;;;;;5.25;2.10;;;;;;;2.29;47.97;101375.94;5064771;28;20055;-60
2022/02/27 11:14:38;;;;;;;4.30;1.65;;;;;;;2.35;47.86;101378.72;5064743;28;20313;-62
2022/02/27 11:17:04;;;;;;;5.10;1.75;;;;;;;2.46;48.28;101376.59;5063528;28;20120;-63
2022/02/27 11:19:30;;;;;;;4.28;1.90;;;;;;;2.36;48.72;101375.38;5064016;28;20028;-63
2022/02/27 11:21:57;;;;;;;2.85;1.90;;;;;;;2.52;51.12;101387.06;5055411;28;20070;-61
2022/02/27 11:24:24;;;;;;;2.10;1.50;;;;;;;2.51;49.25;101378.53;5061966;28;20096;-62
2022/02/27 11:26:49;;;;;;;2.97;1.30;;;;;;;2.59;48.18;101387.38;5064474;28;20341;-61
2022/02/27 11:29:15;;;;;;;2.45;1.52;;;;;;;2.67;48.38;101381.69;5059785;28;20096;-62
2022/02/27 11:31:41;;;;;;;4.90;1.83;;;;;;;2.41;48.78;101386.66;5060101;28;20325;-62